Time;durP1;ratioP1;P1;durP2;ratioP2;P2;SDS_P1;SDS_P2;PMS_P1;PMS_P2;Temp;Humidity;BMP_temperature;BMP_pressure;BME280_temperature;BME280_humidity;BME280_pressure;Samples;Min_cycle;Max_cycle;Signal;HPM_P1;HPM_P2
2022/07/26 00:01:28;;;;;;;6.67;2.90;;;25.10;59.40;;;;;;4975916;28;20837;-79
2022/07/26 00:03:55;;;;;;;3.27;2.97;;;25.20;59.70;;;;;;4974474;28;20460;-79
2022/07/26 00:06:21;;;;;;;3.27;2.97;;;25.10;59.80;;;;;;4975775;28;20469;-78
2022/07/26 00:08:49;;;;;;;5.23;2.50;;;25.20;59.80;;;;;;4975440;28;20546;-79
2022/07/26 00:11:16;;;;;;;5.63;2.80;;;25.10;59.90;;;;;;4975700;28;20456;-79
2022/07/26 00:13:42;;;;;;;5.93;3.53;;;25.10;59.90;;;;;;4975506;28;21338;-79
2022/07/26 00:16:09;;;;;;;4.47;3.30;;;25.10;60.00;;;;;;4975749;28;20448;-78
2022/07/26 00:18:38;;;;;;;5.80;3.00;;;25.10;60.30;;;;;;4979513;28;20975;-78
2022/07/26 00:21:05;;;;;;;3.93;2.90;;;25.10;60.30;;;;;;4978226;28;20444;-79
2022/07/26 00:23:31;;;;;;;5.70;3.00;;;25.10;60.20;;;;;;4976428;28;20451;-78
2022/07/26 00:25:58;;;;;;;5.57;2.80;;;25.10;60.20;;;;;;4976475;28;20475;-78
2022/07/26 00:28:25;;;;;;;3.27;2.70;;;25.10;60.30;;;;;;4980172;28;20460;-79
2022/07/26 00:30:51;;;;;;;8.20;3.70;;;25.10;60.90;;;;;;4997361;28;20452;-78
2022/07/26 00:33:18;;;;;;;4.40;2.53;;;25.10;61.00;;;;;;4997656;28;20436;-78
2022/07/26 00:35:46;;;;;;;2.93;2.50;;;25.10;61.50;;;;;;4993171;28;20449;-78
2022/07/26 00:38:13;;;;;;;8.07;3.10;;;25.00;61.90;;;;;;4978531;28;20457;-78
2022/07/26 00:40:40;;;;;;;3.73;2.53;;;25.10;62.10;;;;;;4978237;28;20538;-79
2022/07/26 00:43:07;;;;;;;2.40;2.13;;;25.10;61.90;;;;;;4975672;28;20812;-78
2022/07/26 00:45:33;;;;;;;3.37;2.73;;;25.10;62.00;;;;;;4974673;28;20448;-78
2022/07/26 00:48:00;;;;;;;3.57;2.30;;;25.00;62.30;;;;;;4975211;28;20863;-79
2022/07/26 00:50:27;;;;;;;3.63;1.80;;;25.00;62.70;;;;;;4974214;28;20487;-79
2022/07/26 00:52:55;;;;;;;4.27;2.43;;;25.00;62.60;;;;;;4978933;28;20444;-79
2022/07/26 00:55:22;;;;;;;4.30;2.17;;;25.10;62.70;;;;;;4975354;28;20437;-78
2022/07/26 00:57:50;;;;;;;2.90;2.07;;;25.10;62.70;;;;;;4975263;28;20514;-78
2022/07/26 01:00:20;;;;;;;6.27;2.63;;;25.10;62.80;;;;;;4976638;28;20558;-79
2022/07/26 01:02:47;;;;;;;4.07;1.93;;;25.10;62.70;;;;;;4975958;28;20448;-78
2022/07/26 01:05:14;;;;;;;3.57;2.50;;;25.10;63.00;;;;;;4975079;28;20452;-79
2022/07/26 01:07:42;;;;;;;3.53;1.80;;;25.20;63.20;;;;;;4974902;28;20452;-79
2022/07/26 01:10:11;;;;;;;3.73;2.00;;;25.20;63.20;;;;;;4974541;28;20507;-79
2022/07/26 01:12:38;;;;;;;3.00;1.77;;;25.20;63.50;;;;;;4974874;28;20499;-79
2022/07/26 01:15:06;;;;;;;5.60;1.93;;;25.20;63.90;;;;;;4974808;28;20506;-79
2022/07/26 01:17:32;;;;;;;12.17;3.07;;;25.10;66.30;;;;;;4974722;28;20455;-79
2022/07/26 01:19:59;;;;;;;8.20;2.20;;;24.80;73.20;;;;;;4979585;28;20480;-76
2022/07/26 01:22:27;;;;;;;3.70;2.17;;;24.20;81.90;;;;;;4985606;28;20455;-77
2022/07/26 01:24:54;;;;;;;5.13;3.07;;;23.50;90.40;;;;;;4977928;28;20452;-77
2022/07/26 01:27:20;;;;;;;3.80;2.70;;;23.00;93.80;;;;;;4977248;28;20507;-77
2022/07/26 01:29:48;;;;;;;2.57;2.33;;;22.70;98.00;;;;;;4976834;28;20488;-77
2022/07/26 01:32:14;;;;;;;3.10;2.47;;;22.30;99.90;;;;;;4976935;28;20949;-77
2022/07/26 01:34:41;;;;;;;4.43;2.83;;;22.10;99.90;;;;;;4976403;28;20451;-77
2022/07/26 01:37:08;;;;;;;3.60;2.87;;;21.90;99.90;;;;;;4976425;28;20862;-77
2022/07/26 01:39:36;;;;;;;3.70;2.40;;;21.70;99.90;;;;;;4978018;28;20476;-77
2022/07/26 01:42:03;;;;;;;5.67;3.03;;;21.60;99.90;;;;;;4978783;28;20544;-76
2022/07/26 01:44:30;;;;;;;3.13;2.83;;;21.50;99.90;;;;;;4976089;28;20527;-77
2022/07/26 01:46:56;;;;;;;4.50;3.20;;;21.50;99.90;;;;;;4975888;28;20436;-77
2022/07/26 01:49:23;;;;;;;4.83;3.60;;;21.50;99.90;;;;;;4975775;28;20488;-77
2022/07/26 01:51:50;;;;;;;3.73;2.87;;;21.40;99.90;;;;;;4976158;28;20972;-78
2022/07/26 01:54:16;;;;;;;4.10;3.10;;;21.50;99.90;;;;;;4980551;28;20472;-76
2022/07/26 01:56:44;;;;;;;5.20;2.50;;;21.50;99.90;;;;;;4996408;28;20455;-76
2022/07/26 01:59:11;;;;;;;4.30;3.07;;;21.50;99.90;;;;;;4996685;28;20460;-77
2022/07/26 02:01:38;;;;;;;3.10;2.50;;;21.60;99.90;;;;;;4978650;28;20448;-78
2022/07/26 02:04:04;;;;;;;5.50;2.90;;;21.70;99.90;;;;;;4977210;28;20464;-78
2022/07/26 02:06:31;;;;;;;4.00;3.00;;;21.80;99.90;;;;;;4976810;28;20452;-78
2022/07/26 02:08:58;;;;;;;4.90;3.20;;;21.80;99.90;;;;;;4977327;28;20829;-78
2022/07/26 02:11:25;;;;;;;4.50;3.93;;;21.80;99.90;;;;;;4978171;28;20449;-78
2022/07/26 02:13:53;;;;;;;4.03;3.03;;;21.90;99.90;;;;;;4978160;28;20456;-78
2022/07/26 02:16:20;;;;;;;6.60;2.80;;;22.00;99.90;;;;;;4976499;28;20457;-78
2022/07/26 02:18:47;;;;;;;5.50;3.40;;;22.00;99.90;;;;;;4976544;28;20472;-78
2022/07/26 02:21:13;;;;;;;4.00;3.30;;;22.00;99.90;;;;;;4978746;28;20453;-78
2022/07/26 02:23:40;;;;;;;3.90;3.00;;;21.80;99.90;;;;;;4979290;28;20449;-78
2022/07/26 02:26:07;;;;;;;4.40;3.17;;;21.60;99.90;;;;;;4978060;28;20480;-78
2022/07/26 02:28:33;;;;;;;5.30;3.30;;;21.70;99.90;;;;;;4976432;28;20964;-78
2022/07/26 02:31:01;;;;;;;4.17;3.23;;;21.80;99.90;;;;;;4976425;28;20863;-78
2022/07/26 02:33:28;;;;;;;5.43;2.87;;;21.90;99.90;;;;;;4975400;28;20453;-78
2022/07/26 02:35:55;;;;;;;4.43;3.00;;;22.00;99.90;;;;;;4976327;28;20448;-79
2022/07/26 02:38:21;;;;;;;3.27;2.97;;;22.00;99.90;;;;;;4976462;28;20464;-79
2022/07/26 02:40:49;;;;;;;4.13;2.80;;;22.00;99.90;;;;;;4976661;28;20487;-78
2022/07/26 02:43:16;;;;;;;4.67;2.60;;;21.90;99.90;;;;;;4976018;28;20449;-78
2022/07/26 02:45:42;;;;;;;6.83;2.93;;;21.90;99.90;;;;;;4975861;28;20457;-78
2022/07/26 02:48:10;;;;;;;5.63;3.10;;;21.80;99.90;;;;;;4976116;28;20444;-79
2022/07/26 02:50:37;;;;;;;3.50;2.97;;;21.80;99.90;;;;;;4979627;28;20556;-78
2022/07/26 02:53:04;;;;;;;4.93;3.07;;;21.70;99.90;;;;;;4981358;28;20464;-79
2022/07/26 02:55:31;;;;;;;5.20;2.77;;;21.70;99.90;;;;;;4979445;28;20453;-79
2022/07/26 02:57:58;;;;;;;3.20;2.80;;;21.70;99.90;;;;;;4979851;28;20444;-79
2022/07/26 03:00:26;;;;;;;3.30;2.70;;;21.70;99.90;;;;;;4977583;28;20471;-79
2022/07/26 03:02:53;;;;;;;2.37;1.90;;;21.70;99.90;;;;;;4978218;28;20932;-78
2022/07/26 03:05:22;;;;;;;4.83;3.00;;;21.70;99.90;;;;;;4978159;28;20455;-77
2022/07/26 03:07:49;;;;;;;3.83;2.77;;;21.70;99.90;;;;;;4974648;28;20456;-79
2022/07/26 03:10:16;;;;;;;2.77;2.47;;;21.70;99.90;;;;;;4977364;28;20492;-79
2022/07/26 03:12:43;;;;;;;4.63;2.47;;;21.70;99.90;;;;;;4976095;28;20954;-79
2022/07/26 03:15:11;;;;;;;4.30;3.00;;;21.70;99.90;;;;;;4976417;28;20452;-78
2022/07/26 03:17:37;;;;;;;5.70;2.50;;;21.70;99.90;;;;;;4975778;28;20605;-78
2022/07/26 03:20:05;;;;;;;3.27;2.97;;;21.80;99.90;;;;;;4986603;28;20448;-77
2022/07/26 03:22:33;;;;;;;4.60;2.77;;;21.90;99.90;;;;;;4999481;28;20578;-78
2022/07/26 03:25:01;;;;;;;4.43;3.00;;;21.80;99.90;;;;;;4982104;28;20437;-79
2022/07/26 03:27:27;;;;;;;3.00;2.50;;;21.90;99.90;;;;;;4976748;28;20866;-78
2022/07/26 03:29:54;;;;;;;3.23;2.73;;;21.80;99.90;;;;;;4977108;28;20487;-78
2022/07/26 03:32:21;;;;;;;3.97;2.87;;;21.80;99.90;;;;;;4977283;28;20463;-78
2022/07/26 03:34:47;;;;;;;2.90;2.23;;;21.70;99.90;;;;;;4975963;28;20460;-78
2022/07/26 03:37:14;;;;;;;3.80;2.37;;;21.70;99.90;;;;;;4982851;28;20428;-78
2022/07/26 03:39:42;;;;;;;3.17;2.50;;;21.80;99.90;;;;;;5020650;23;20996;-85
2022/07/26 03:42:09;;;;;;;4.63;2.53;;;21.70;99.90;;;;;;4992627;28;20448;-85
2022/07/26 03:44:36;;;;;;;2.70;2.50;;;21.70;99.90;;;;;;4993676;28;20443;-85
2022/07/26 03:47:02;;;;;;;3.70;2.90;;;21.70;99.90;;;;;;4994116;28;20478;-85
2022/07/26 03:49:29;;;;;;;4.13;2.43;;;21.70;99.90;;;;;;4995497;28;20467;-84
2022/07/26 03:51:56;;;;;;;2.60;2.40;;;21.70;99.90;;;;;;4999176;28;20459;-84
2022/07/26 03:54:23;;;;;;;2.40;2.20;;;21.80;99.90;;;;;;4994320;28;20460;-85
2022/07/26 03:56:50;;;;;;;2.90;2.03;;;21.80;99.90;;;;;;4995123;28;20462;-85
2022/07/26 03:59:17;;;;;;;2.90;2.27;;;21.80;99.90;;;;;;4999638;28;20486;-85
2022/07/26 04:01:46;;;;;;;3.93;2.50;;;21.90;99.90;;;;;;4997526;28;21026;-85
2022/07/26 04:04:14;;;;;;;5.07;2.40;;;22.00;99.90;;;;;;4994983;28;20921;-85
2022/07/26 04:06:41;;;;;;;3.00;2.07;;;22.00;99.90;;;;;;4994249;28;20820;-84
2022/07/26 04:09:08;;;;;;;3.27;2.30;;;22.00;99.90;;;;;;4993809;28;20448;-85
2022/07/26 04:11:35;;;;;;;4.60;3.13;;;22.00;99.90;;;;;;4993516;28;20493;-84
2022/07/26 04:14:03;;;;;;;3.47;2.37;;;22.00;99.90;;;;;;4993366;28;20508;-85
2022/07/26 04:16:30;;;;;;;3.80;2.10;;;22.10;99.90;;;;;;4992935;28;20525;-84
2022/07/26 04:18:57;;;;;;;2.63;1.90;;;22.10;99.90;;;;;;4997772;28;20455;-84
2022/07/26 04:21:24;;;;;;;3.97;2.53;;;22.00;99.90;;;;;;4992955;28;20450;-85
2022/07/26 04:23:51;;;;;;;4.70;2.33;;;22.00;99.90;;;;;;4993879;28;20947;-87
2022/07/26 04:26:18;;;;;;;6.37;2.33;;;21.90;99.90;;;;;;4994242;28;20455;-84
2022/07/26 04:28:45;;;;;;;3.53;2.10;;;21.90;99.90;;;;;;4993720;28;20462;-86
2022/07/26 04:31:13;;;;;;;4.43;2.47;;;21.90;99.90;;;;;;4993225;28;20494;-84
2022/07/26 04:33:39;;;;;;;3.60;2.60;;;21.90;99.90;;;;;;4995454;28;20459;-84
2022/07/26 04:36:06;;;;;;;3.10;2.30;;;21.90;99.90;;;;;;4998071;28;20824;-84
2022/07/26 04:38:33;;;;;;;3.27;2.50;;;21.90;99.90;;;;;;4994218;28;20467;-84
2022/07/26 04:41:00;;;;;;;4.60;2.03;;;22.10;99.90;;;;;;4992798;28;20525;-84
2022/07/26 04:43:26;;;;;;;4.20;2.53;;;22.10;99.90;;;;;;4994681;28;20478;-84
2022/07/26 04:45:53;;;;;;;2.67;2.30;;;22.10;99.90;;;;;;4994173;28;20458;-85
2022/07/26 04:48:21;;;;;;;5.60;2.53;;;22.00;99.90;;;;;;4994292;28;20462;-85
2022/07/26 04:50:48;;;;;;;4.33;2.30;;;22.00;99.90;;;;;;5007817;28;20503;-85
2022/07/26 04:53:15;;;;;;;2.53;2.33;;;22.10;99.90;;;;;;5013634;28;20447;-85
2022/07/26 04:55:42;;;;;;;3.17;2.40;;;22.10;99.90;;;;;;5009139;28;20450;-85
2022/07/26 04:58:09;;;;;;;3.23;2.80;;;22.20;99.90;;;;;;5011396;28;20471;-84
2022/07/26 05:00:36;;;;;;;3.60;2.30;;;22.30;99.90;;;;;;5010465;28;20456;-85
2022/07/26 05:03:04;;;;;;;5.73;2.10;;;22.40;99.90;;;;;;5009111;28;20447;-85
2022/07/26 05:05:33;;;;;;;2.40;2.10;;;22.50;99.90;;;;;;5000214;28;20444;-86
2022/07/26 05:08:01;;;;;;;5.33;2.30;;;22.60;99.90;;;;;;4998744;28;20955;-87
2022/07/26 05:10:30;;;;;;;3.70;2.30;;;22.60;99.90;;;;;;4997254;28;20490;-85
2022/07/26 05:12:57;;;;;;;3.00;2.67;;;22.50;99.90;;;;;;4998826;28;20451;-86
2022/07/26 05:15:24;;;;;;;2.60;2.40;;;22.60;99.90;;;;;;5008799;28;20447;-86
2022/07/26 05:17:51;;;;;;;2.80;2.30;;;23.00;99.90;;;;;;4997219;28;20883;-86
2022/07/26 05:20:17;;;;;;;3.40;2.37;;;23.40;99.90;;;;;;4999878;28;20451;-85
2022/07/26 05:22:46;;;;;;;3.30;2.47;;;23.90;99.80;;;;;;4997935;28;20436;-86
2022/07/26 05:25:13;;;;;;;5.30;3.33;;;24.40;98.20;;;;;;5002219;28;20929;-86
2022/07/26 05:27:40;;;;;;;3.80;2.53;;;25.10;96.80;;;;;;5000603;28;20515;-86
2022/07/26 05:30:09;;;;;;;3.13;2.50;;;25.40;94.90;;;;;;4997750;28;20554;-86
2022/07/26 05:32:36;;;;;;;5.70;3.13;;;25.40;94.20;;;;;;5003520;28;20439;-84
2022/07/26 05:35:03;;;;;;;2.87;2.23;;;25.40;93.50;;;;;;5008318;28;20435;-85
2022/07/26 05:37:30;;;;;;;4.43;3.20;;;25.60;93.30;;;;;;5003297;28;20435;-85
2022/07/26 05:39:58;;;;;;;3.97;2.50;;;25.60;93.00;;;;;;5000335;28;20482;-85
2022/07/26 05:42:25;;;;;;;3.27;2.70;;;25.70;92.60;;;;;;4998090;28;20446;-85
2022/07/26 05:44:52;;;;;;;3.37;2.60;;;25.70;92.40;;;;;;5000822;28;20448;-86
2022/07/26 05:47:23;;;;;;;2.63;2.30;;;25.50;92.40;;;;;;4995310;28;20452;-90
2022/07/26 05:56:21;;;;;;;6.70;3.77;;;24.30;94.30;;;;;;4984812;28;20455;-86
2022/07/26 05:59:10;;;;;;;3.67;3.37;;;24.10;95.30;;;;;;5000000;28;20431;-91
2022/07/26 06:01:47;;;;;;;4.13;2.80;;;23.90;95.90;;;;;;4977484;28;20440;-91
2022/07/26 06:07:21;;;;;;;4.23;2.57;;;24.70;95.30;;;;;;4957582;28;20449;-90
2022/07/26 06:37:14;;;;;;;3.63;2.03;;;30.90;58.50;;;;;;4752222;29;21078;-90
2022/07/26 06:40:04;;;;;;;3.37;1.83;;;31.00;56.80;;;;;;4889480;29;20576;-88
2022/07/26 06:42:43;;;;;;;3.70;2.00;;;31.20;56.00;;;;;;4929446;28;20511;-88
2022/07/26 06:45:34;;;;;;;3.60;1.67;;;31.60;55.30;;;;;;4986708;28;20950;-88
2022/07/26 06:48:19;;;;;;;3.53;2.43;;;31.70;54.10;;;;;;4983366;28;20483;-88
2022/07/26 06:51:03;;;;;;;2.83;1.60;;;31.90;53.20;;;;;;4975754;28;20489;-89
2022/07/26 06:54:26;;;;;;;3.03;2.10;;;32.40;52.50;;;;;;4977763;28;20465;-89
2022/07/26 06:57:31;;;;;;;2.90;2.37;;;32.90;51.00;;;;;;4978421;28;20509;-89
2022/07/26 07:03:11;;;;;;;2.27;1.87;;;33.80;48.40;;;;;;4952423;28;20442;-88
2022/07/26 07:05:38;;;;;;;3.07;1.50;;;34.30;47.00;;;;;;4975623;28;20470;-89
2022/07/26 07:08:06;;;;;;;3.00;1.40;;;35.10;45.70;;;;;;4975971;28;20578;-89
2022/07/26 07:10:34;;;;;;;3.43;2.00;;;35.70;44.10;;;;;;4975262;28;20495;-89
2022/07/26 07:13:01;;;;;;;4.40;2.10;;;36.00;42.90;;;;;;4975642;28;20463;-89
2022/07/26 07:15:28;;;;;;;2.20;1.50;;;36.00;42.30;;;;;;4976234;28;20450;-89
2022/07/26 07:17:55;;;;;;;2.90;1.57;;;35.70;42.10;;;;;;4989053;28;20458;-89
2022/07/26 07:20:22;;;;;;;3.20;1.73;;;35.90;40.90;;;;;;4998769;28;20499;-89
2022/07/26 07:22:49;;;;;;;3.10;1.90;;;35.70;41.10;;;;;;4997498;28;20451;-89
2022/07/26 07:25:16;;;;;;;2.57;1.37;;;36.00;40.70;;;;;;4993179;28;20435;-89
2022/07/26 07:27:49;;;;;;;4.53;1.70;;;35.50;39.80;;;;;;4990526;28;20431;-89
2022/07/26 07:30:26;;;;;;;4.50;1.90;;;36.20;40.20;;;;;;4957516;29;20467;-89
2022/07/26 07:32:58;;;;;;;4.43;1.50;;;36.10;39.60;;;;;;4955746;29;20980;-89
2022/07/26 07:35:25;;;;;;;4.90;1.70;;;36.30;39.70;;;;;;4955282;29;20459;-89
2022/07/26 07:37:54;;;;;;;4.47;1.33;;;36.20;37.60;;;;;;4956776;29;20558;-89
2022/07/26 07:40:21;;;;;;;4.13;1.50;;;35.20;38.90;;;;;;4955931;29;20482;-90
2022/07/26 07:43:10;;;;;;;2.50;1.67;;;35.00;39.30;;;;;;4956454;28;20452;-90
2022/07/26 07:45:37;;;;;;;4.03;1.97;;;35.30;38.70;;;;;;4957009;29;20551;-90
2022/07/26 07:48:05;;;;;;;2.27;1.40;;;35.90;37.40;;;;;;4961559;29;20440;-89
2022/07/26 07:50:32;;;;;;;2.90;1.80;;;36.20;37.00;;;;;;4961339;29;20988;-89
2022/07/26 07:52:59;;;;;;;3.10;1.37;;;36.70;35.90;;;;;;4955681;29;20487;-89
2022/07/26 07:55:33;;;;;;;3.00;1.60;;;36.30;35.80;;;;;;4956112;29;20980;-89
2022/07/26 08:04:18;;;;;;;3.53;1.43;;;37.60;34.90;;;;;;4953379;29;20457;-90
2022/07/26 08:06:46;;;;;;;3.70;1.33;;;38.20;33.80;;;;;;4956127;29;20522;-89
2022/07/26 08:09:19;;;;;;;1.90;1.20;;;38.80;32.60;;;;;;4961577;29;20437;-90
2022/07/26 08:11:46;;;;;;;4.90;1.57;;;38.80;32.40;;;;;;4971831;29;20479;-89
2022/07/26 08:14:24;;;;;;;3.30;1.40;;;38.80;32.50;;;;;;4964990;29;20520;-89
2022/07/26 08:16:51;;;;;;;9.43;1.63;;;38.80;32.00;;;;;;4981275;23;20489;-88
2022/07/26 08:19:17;;;;;;;2.90;1.20;;;38.70;32.30;;;;;;4993717;28;21197;-89
2022/07/26 08:24:39;;;;;;;3.00;1.63;;;39.00;31.80;;;;;;4973850;28;20437;-90
2022/07/26 08:27:08;;;;;;;3.63;1.37;;;38.80;31.90;;;;;;4973630;28;20459;-90
2022/07/26 08:29:36;;;;;;;3.40;1.40;;;39.20;31.60;;;;;;4987879;23;20472;-88
2022/07/26 08:32:03;;;;;;;2.10;1.37;;;39.50;30.60;;;;;;4998897;28;20535;-88
2022/07/26 08:34:30;;;;;;;3.97;1.40;;;38.60;31.10;;;;;;4987013;28;20447;-87
2022/07/26 08:36:57;;;;;;;1.93;1.63;;;39.00;30.90;;;;;;4980188;28;20459;-86
2022/07/26 08:39:24;;;;;;;3.10;1.70;;;39.50;30.70;;;;;;4979947;28;20456;-86
2022/07/26 08:41:50;;;;;;;3.90;1.60;;;39.00;30.50;;;;;;4958602;28;20484;-86
2022/07/26 08:44:18;;;;;;;4.37;1.73;;;37.10;32.10;;;;;;4958513;29;20458;-86
2022/07/26 08:46:46;;;;;;;3.00;1.70;;;35.30;34.50;;;;;;4959549;29;20456;-86
2022/07/26 08:49:13;;;;;;;3.07;1.30;;;35.70;35.20;;;;;;4958448;29;20461;-86
2022/07/26 08:51:42;;;;;;;2.27;1.57;;;35.40;34.90;;;;;;4976044;28;20470;-85
2022/07/26 08:54:10;;;;;;;2.10;1.50;;;34.60;35.90;;;;;;4979481;29;20452;-86
2022/07/26 08:56:42;;;;;;;5.40;1.53;;;35.30;35.60;;;;;;4959978;29;20455;-86
2022/07/26 08:59:14;;;;;;;3.83;2.00;;;35.30;35.60;;;;;;4958420;29;20926;-86
2022/07/26 09:02:00;;;;;;;5.53;1.50;;;35.60;35.30;;;;;;4964414;28;20807;-91
2022/07/26 09:04:31;;;;;;;3.73;1.83;;;34.50;35.70;;;;;;4974538;29;20454;-91
2022/07/26 09:07:04;;;;;;;3.23;1.60;;;33.10;37.90;;;;;;4970855;28;20440;-90
2022/07/26 09:09:31;;;;;;;4.33;1.70;;;32.30;39.40;;;;;;4967203;28;20754;-90
2022/07/26 09:11:58;;;;;;;4.77;1.93;;;33.10;39.50;;;;;;4959241;29;20495;-90
2022/07/26 09:14:36;;;;;;;3.27;1.33;;;35.00;37.00;;;;;;4968833;28;20443;-90
2022/07/26 09:17:05;;;;;;;2.97;1.87;;;35.70;35.30;;;;;;4979156;28;20455;-91
2022/07/26 09:19:33;;;;;;;2.23;1.33;;;35.10;35.30;;;;;;4965162;28;20499;-90
2022/07/26 09:22:07;;;;;;;4.77;1.50;;;34.40;36.30;;;;;;4961604;29;20588;-90
2022/07/26 09:24:37;;;;;;;2.50;1.30;;;34.30;36.60;;;;;;4960965;29;20980;-91
2022/07/26 09:27:05;;;;;;;2.53;1.63;;;34.50;36.40;;;;;;4967125;29;20448;-91
2022/07/26 09:29:46;;;;;;;4.23;1.90;;;34.50;36.10;;;;;;4966025;28;20786;-91
2022/07/26 09:32:17;;;;;;;2.43;1.60;;;33.50;37.00;;;;;;4941462;29;20493;-91
2022/07/26 09:34:45;;;;;;;3.57;1.67;;;33.80;37.30;;;;;;4939882;29;20499;-91
2022/07/26 09:37:12;;;;;;;3.80;2.17;;;35.10;36.30;;;;;;4939870;29;20539;-91
2022/07/26 09:40:01;;;;;;;4.73;1.57;;;36.40;35.00;;;;;;4939331;29;20548;-91
2022/07/26 09:42:29;;;;;;;2.70;1.23;;;38.00;32.60;;;;;;4940049;29;20463;-91
2022/07/26 09:44:57;;;;;;;3.70;1.83;;;38.60;31.30;;;;;;4939577;29;20544;-91
2022/07/26 09:47:36;;;;;;;4.50;1.80;;;38.90;30.90;;;;;;4940217;29;20466;-91
2022/07/26 09:50:16;;;;;;;2.60;1.47;;;38.60;30.80;;;;;;4940716;29;20471;-91
2022/07/26 09:53:08;;;;;;;2.10;1.13;;;37.50;31.70;;;;;;4940348;29;20483;-91
2022/07/26 09:55:55;;;;;;;2.20;1.40;;;38.40;31.10;;;;;;4939876;29;20456;-91
2022/07/26 09:58:25;;;;;;;8.97;2.47;;;38.40;30.40;;;;;;4949693;29;20434;-91
2022/07/26 10:00:53;;;;;;;3.47;1.43;;;38.70;30.40;;;;;;4960079;29;20458;-92
2022/07/26 10:03:27;;;;;;;2.97;1.53;;;39.00;30.10;;;;;;4942481;29;20519;-91
2022/07/26 10:05:59;;;;;;;3.30;1.30;;;39.60;29.60;;;;;;4940332;29;20469;-91
2022/07/26 10:08:32;;;;;;;2.50;1.27;;;40.00;29.50;;;;;;4939822;29;20439;-91
2022/07/26 10:11:08;;;;;;;3.00;1.20;;;41.20;28.50;;;;;;4939572;29;20473;-92
2022/07/26 10:13:46;;;;;;;3.27;1.60;;;42.30;27.60;;;;;;4940216;29;20811;-91
2022/07/26 10:16:30;;;;;;;1.80;1.20;;;42.60;27.30;;;;;;4949645;28;20443;-92
2022/07/26 10:19:01;;;;;;;4.63;1.33;;;42.50;27.00;;;;;;4956121;28;20458;-91
2022/07/26 10:21:34;;;;;;;2.40;1.17;;;42.90;26.80;;;;;;4955096;29;20499;-92
2022/07/26 10:24:03;;;;;;;2.03;1.10;;;43.20;26.90;;;;;;4957362;28;20439;-91
2022/07/26 10:26:45;;;;;;;4.20;1.50;;;43.50;26.30;;;;;;4944666;29;20451;-92
2022/07/26 10:29:34;;;;;;;2.03;1.17;;;43.30;26.50;;;;;;4941994;29;20918;-91
2022/07/26 10:32:18;;;;;;;2.43;1.50;;;43.20;26.40;;;;;;4942042;29;20528;-92
2022/07/26 10:34:47;;;;;;;2.80;1.40;;;43.40;26.70;;;;;;4940944;29;20454;-91
2022/07/26 10:37:30;;;;;;;4.50;1.20;;;43.40;26.40;;;;;;4943389;29;20495;-91
2022/07/26 10:40:17;;;;;;;3.00;1.30;;;43.50;26.20;;;;;;4941546;29;20509;-92
2022/07/26 10:42:45;;;;;;;1.33;1.00;;;43.10;26.50;;;;;;4943639;29;20526;-91
2022/07/26 10:45:20;;;;;;;3.30;2.73;;;42.90;26.50;;;;;;4940410;29;20493;-92
2022/07/26 10:48:11;;;;;;;1.60;1.43;;;42.90;26.20;;;;;;4939799;29;20442;-92
2022/07/26 10:53:27;;;;;;;1.60;1.30;;;44.30;25.50;;;;;;4940887;29;20835;-90
2022/07/26 10:55:56;;;;;;;3.03;1.10;;;44.00;25.20;;;;;;4940483;29;20474;-91
2022/07/26 10:58:27;;;;;;;1.87;1.20;;;42.90;25.60;;;;;;4939082;29;20563;-91
2022/07/26 11:00:56;;;;;;;1.67;1.33;;;43.10;25.90;;;;;;4939570;29;20470;-91
2022/07/26 11:03:23;;;;;;;2.27;1.60;;;43.20;25.80;;;;;;4955193;29;20465;-91
2022/07/26 11:05:51;;;;;;;1.63;1.10;;;43.20;25.60;;;;;;4945685;29;20549;-91
2022/07/26 11:08:28;;;;;;;2.13;1.40;;;43.40;25.30;;;;;;4948824;28;20478;-91
2022/07/26 11:10:58;;;;;;;2.67;1.20;;;43.60;25.10;;;;;;4958082;28;20453;-91
2022/07/26 11:13:30;;;;;;;3.03;1.67;;;43.60;25.10;;;;;;4943239;29;20498;-92
2022/07/26 11:16:00;;;;;;;1.80;1.23;;;43.70;24.90;;;;;;4943230;29;20450;-91
2022/07/26 11:18:31;;;;;;;2.60;1.40;;;43.40;25.00;;;;;;4941021;29;20462;-91
2022/07/26 11:21:10;;;;;;;2.57;1.67;;;43.10;25.00;;;;;;4942329;29;20475;-91
2022/07/26 11:23:38;;;;;;;2.13;1.40;;;42.50;25.30;;;;;;4940873;29;20497;-91
2022/07/26 11:26:11;;;;;;;2.10;1.30;;;42.70;25.40;;;;;;4956275;29;20431;-91
2022/07/26 11:28:45;;;;;;;1.53;1.13;;;43.20;25.10;;;;;;4958103;28;20602;-91
2022/07/26 11:31:12;;;;;;;2.00;1.40;;;43.40;24.70;;;;;;4944639;29;20484;-91
2022/07/26 11:33:40;;;;;;;2.13;1.33;;;43.40;24.80;;;;;;4940211;29;20446;-90
2022/07/26 11:36:09;;;;;;;1.50;1.20;;;43.80;24.60;;;;;;4940954;29;20450;-92
2022/07/26 11:38:51;;;;;;;1.63;1.47;;;44.00;24.30;;;;;;4949035;29;20462;-91
2022/07/26 11:41:21;;;;;;;2.63;1.70;;;43.30;24.50;;;;;;4954611;29;20471;-90
2022/07/26 11:43:48;;;;;;;3.67;1.43;;;43.10;24.60;;;;;;4959129;28;20494;-91
2022/07/26 11:46:16;;;;;;;1.23;0.80;;;43.30;24.70;;;;;;4955752;29;20447;-90
2022/07/26 11:48:47;;;;;;;2.80;1.33;;;43.20;24.20;;;;;;4943457;29;20462;-91
2022/07/26 11:51:17;;;;;;;3.50;1.20;;;42.30;24.50;;;;;;4954640;28;20534;-90
2022/07/26 11:53:44;;;;;;;1.50;1.10;;;41.70;25.30;;;;;;4953198;29;20442;-91
2022/07/26 11:56:13;;;;;;;2.53;1.50;;;42.20;25.20;;;;;;4960173;28;20510;-90
2022/07/26 11:58:41;;;;;;;1.87;1.27;;;43.40;24.60;;;;;;4959891;28;20546;-90
2022/07/26 12:01:09;;;;;;;1.90;1.60;;;42.70;24.00;;;;;;4957452;29;20467;-91
2022/07/26 12:03:36;;;;;;;1.10;0.93;;;42.90;24.20;;;;;;4959161;28;20482;-91
2022/07/26 12:06:05;;;;;;;2.27;1.13;;;44.20;23.60;;;;;;4959711;28;20458;-90
2022/07/26 12:08:44;;;;;;;2.03;1.03;;;43.80;23.50;;;;;;4952390;29;20434;-91
2022/07/26 12:11:12;;;;;;;1.70;1.30;;;43.50;23.40;;;;;;4946661;29;20474;-91
2022/07/26 12:13:52;;;;;;;1.70;0.80;;;44.10;23.40;;;;;;4943959;29;20443;-91
2022/07/26 12:16:43;;;;;;;1.20;0.90;;;44.40;23.20;;;;;;4940492;29;20454;-90
2022/07/26 12:19:24;;;;;;;2.07;0.90;;;44.80;22.50;;;;;;4932870;29;20435;-91
2022/07/26 12:21:54;;;;;;;1.50;1.10;;;44.30;22.70;;;;;;4949545;28;20470;-91
2022/07/26 12:24:40;;;;;;;2.03;1.00;;;44.60;22.40;;;;;;4953043;29;20490;-90
2022/07/26 12:27:13;;;;;;;2.80;1.20;;;43.70;22.80;;;;;;4939325;29;20442;-91
2022/07/26 12:29:41;;;;;;;2.20;1.10;;;44.60;23.00;;;;;;4939568;29;20520;-91
2022/07/26 12:32:12;;;;;;;2.43;1.17;;;45.20;21.90;;;;;;4939168;29;20886;-90
2022/07/26 12:34:41;;;;;;;1.63;0.90;;;44.90;21.90;;;;;;4937812;29;20458;-90
2022/07/26 12:37:14;;;;;;;3.30;2.93;;;43.50;22.10;;;;;;4939111;29;20457;-90
2022/07/26 12:39:57;;;;;;;1.80;1.30;;;42.50;23.10;;;;;;4946308;29;20465;-90
2022/07/26 12:42:27;;;;;;;1.60;0.90;;;42.50;23.10;;;;;;4957197;28;20441;-91
2022/07/26 12:44:54;;;;;;;3.50;2.83;;;42.90;22.50;;;;;;4943563;29;20434;-91
2022/07/26 12:47:20;;;;;;;3.50;1.70;;;42.90;22.80;;;;;;4940997;29;20530;-90
2022/07/26 12:49:49;;;;;;;2.50;1.13;;;43.60;22.30;;;;;;4937506;29;20975;-90
2022/07/26 12:52:16;;;;;;;1.37;1.00;;;43.60;21.90;;;;;;4939313;29;20461;-91
2022/07/26 12:54:47;;;;;;;2.53;1.30;;;43.40;21.80;;;;;;4938684;29;20974;-89
2022/07/26 12:57:15;;;;;;;2.30;1.00;;;43.10;22.10;;;;;;4937112;29;20474;-90
2022/07/26 12:59:43;;;;;;;1.37;1.00;;;42.80;22.20;;;;;;4937105;29;20529;-90
2022/07/26 13:02:10;;;;;;;1.20;0.93;;;42.50;22.40;;;;;;4937193;29;20446;-91
2022/07/26 13:04:38;;;;;;;5.50;1.40;;;42.80;22.50;;;;;;4952752;29;20474;-90
2022/07/26 13:07:06;;;;;;;2.07;0.90;;;42.50;23.00;;;;;;4955874;28;20457;-91
2022/07/26 13:09:33;;;;;;;1.60;1.00;;;41.80;23.40;;;;;;4941370;29;20458;-90
2022/07/26 13:12:02;;;;;;;1.73;1.00;;;39.90;24.30;;;;;;4942773;29;20455;-90
2022/07/26 13:14:29;;;;;;;1.93;1.10;;;38.60;25.60;;;;;;4941811;29;20465;-90
2022/07/26 13:16:56;;;;;;;1.70;0.90;;;40.00;25.60;;;;;;4940933;29;20457;-91
2022/07/26 13:19:22;;;;;;;2.20;1.20;;;41.70;24.00;;;;;;4942632;29;20438;-90
2022/07/26 13:21:49;;;;;;;2.30;1.00;;;42.10;23.50;;;;;;4940614;29;20477;-90
2022/07/26 13:24:16;;;;;;;2.47;1.10;;;41.10;24.10;;;;;;4940335;29;20500;-90
2022/07/26 13:26:43;;;;;;;1.33;0.93;;;40.60;24.40;;;;;;4958360;28;20445;-91
2022/07/26 13:29:12;;;;;;;2.47;1.63;;;39.50;25.00;;;;;;4962564;28;20446;-92
2022/07/26 13:31:39;;;;;;;3.00;1.10;;;37.90;25.80;;;;;;4971265;28;20481;-92
2022/07/26 13:34:05;;;;;;;1.90;1.07;;;36.90;27.30;;;;;;4962096;29;20452;-91
2022/07/26 13:36:32;;;;;;;2.50;1.20;;;37.90;26.80;;;;;;4961741;29;20453;-91
2022/07/26 13:38:59;;;;;;;1.80;1.10;;;37.60;26.50;;;;;;4960290;29;20558;-90
2022/07/26 13:41:27;;;;;;;1.90;1.13;;;37.80;26.70;;;;;;4964605;28;20990;-91
2022/07/26 13:43:54;;;;;;;1.40;1.00;;;38.60;25.80;;;;;;4964865;29;20486;-91
2022/07/26 13:46:25;;;;;;;2.87;1.63;;;38.40;25.70;;;;;;4965959;28;20460;-90
2022/07/26 13:48:52;;;;;;;3.10;0.90;;;37.40;26.30;;;;;;4962431;29;20449;-90
2022/07/26 13:51:18;;;;;;;2.17;1.20;;;36.70;26.80;;;;;;4962650;28;20849;-91
2022/07/26 13:53:45;;;;;;;2.37;1.30;;;37.60;26.70;;;;;;4965642;29;20449;-90